sensor_id;sensor_type;location;lat;lon;timestamp;pressure;altitude;pressure_sealevel;temperature;humidity
29569;BME280;16501;51.462;14.346;2024-02-04T00:00:03;100367.25;;;7.77;100.00
29569;BME280;16501;51.462;14.346;2024-02-04T00:02:30;100370.81;;;7.78;100.00
29569;BME280;16501;51.462;14.346;2024-02-04T00:04:55;100349.19;;;7.69;100.00
29569;BME280;16501;51.462;14.346;2024-02-04T00:07:21;100353.88;;;7.72;100.00
29569;BME280;16501;51.462;14.346;2024-02-04T00:09:46;100378.06;;;7.88;100.00
29569;BME280;16501;51.462;14.346;2024-02-04T00:12:11;100326.34;;;7.61;100.00
29569;BME280;16501;51.462;14.346;2024-02-04T00:14:37;100355.97;;;7.81;100.00
29569;BME280;16501;51.462;14.346;2024-02-04T00:17:02;100347.97;;;7.70;100.00
29569;BME280;16501;51.462;14.346;2024-02-04T00:19:27;100352.19;;;7.74;100.00
29569;BME280;16501;51.462;14.346;2024-02-04T00:21:52;100373.38;;;7.85;100.00
29569;BME280;16501;51.462;14.346;2024-02-04T00:24:18;100365.00;;;7.85;100.00
29569;BME280;16501;51.462;14.346;2024-02-04T00:26:46;100373.41;;;7.72;100.00
29569;BME280;16501;51.462;14.346;2024-02-04T00:29:12;100378.88;;;7.63;100.00
29569;BME280;16501;51.462;14.346;2024-02-04T00:31:37;100381.25;;;7.51;100.00
29569;BME280;16501;51.462;14.346;2024-02-04T00:34:02;100381.84;;;7.33;100.00
29569;BME280;16501;51.462;14.346;2024-02-04T00:36:28;100380.84;;;7.27;100.00
29569;BME280;16501;51.462;14.346;2024-02-04T00:38:53;100366.03;;;7.17;100.00
29569;BME280;16501;51.462;14.346;2024-02-04T00:41:18;100397.13;;;7.29;100.00
29569;BME280;16501;51.462;14.346;2024-02-04T00:43:43;100395.91;;;7.30;100.00
29569;BME280;16501;51.462;14.346;2024-02-04T00:46:09;100382.41;;;7.28;100.00
29569;BME280;16501;51.462;14.346;2024-02-04T00:48:36;100374.38;;;7.17;100.00
29569;BME280;16501;51.462;14.346;2024-02-04T00:51:01;100353.97;;;7.08;100.00
29569;BME280;16501;51.462;14.346;2024-02-04T00:53:26;100352.41;;;7.07;100.00
29569;BME280;16501;51.462;14.346;2024-02-04T00:55:58;100385.53;;;7.30;100.00
29569;BME280;16501;51.462;14.346;2024-02-04T00:58:23;100370.56;;;7.24;100.00
29569;BME280;16501;51.462;14.346;2024-02-04T01:00:49;100338.69;;;6.99;100.00
29569;BME280;16501;51.462;14.346;2024-02-04T01:03:14;100368.91;;;7.14;100.00
29569;BME280;16501;51.462;14.346;2024-02-04T01:05:39;100384.31;;;7.06;100.00
29569;BME280;16501;51.462;14.346;2024-02-04T01:08:05;100410.53;;;7.21;100.00
29569;BME280;16501;51.462;14.346;2024-02-04T01:10:30;100399.69;;;7.10;100.00
29569;BME280;16501;51.462;14.346;2024-02-04T01:12:55;100401.13;;;7.15;100.00
29569;BME280;16501;51.462;14.346;2024-02-04T01:15:21;100416.66;;;7.16;100.00
29569;BME280;16501;51.462;14.346;2024-02-04T01:17:46;100400.59;;;7.07;100.00
29569;BME280;16501;51.462;14.346;2024-02-04T01:20:11;100406.03;;;6.98;100.00
29569;BME280;16501;51.462;14.346;2024-02-04T01:22:36;100390.66;;;6.93;100.00
29569;BME280;16501;51.462;14.346;2024-02-04T01:25:02;100399.91;;;7.03;100.00
29569;BME280;16501;51.462;14.346;2024-02-04T01:27:27;100399.25;;;6.99;100.00
29569;BME280;16501;51.462;14.346;2024-02-04T01:29:53;100408.59;;;6.92;100.00
29569;BME280;16501;51.462;14.346;2024-02-04T01:32:19;100381.94;;;6.78;100.00
29569;BME280;16501;51.462;14.346;2024-02-04T01:34:44;100393.31;;;6.84;100.00
29569;BME280;16501;51.462;14.346;2024-02-04T01:37:09;100393.97;;;6.75;100.00
29569;BME280;16501;51.462;14.346;2024-02-04T01:39:34;100404.72;;;6.90;100.00
29569;BME280;16501;51.462;14.346;2024-02-04T01:42:00;100390.63;;;6.80;100.00
29569;BME280;16501;51.462;14.346;2024-02-04T01:44:26;100364.66;;;6.71;100.00
29569;BME280;16501;51.462;14.346;2024-02-04T01:46:51;100347.34;;;6.50;100.00
29569;BME280;16501;51.462;14.346;2024-02-04T01:49:17;100375.59;;;6.78;100.00
29569;BME280;16501;51.462;14.346;2024-02-04T01:51:42;100352.47;;;6.65;100.00
29569;BME280;16501;51.462;14.346;2024-02-04T01:54:08;100356.63;;;6.73;100.00
29569;BME280;16501;51.462;14.346;2024-02-04T01:56:33;100338.09;;;6.53;100.00
29569;BME280;16501;51.462;14.346;2024-02-04T01:58:59;100346.78;;;6.55;100.00
29569;BME280;16501;51.462;14.346;2024-02-04T02:01:26;100345.22;;;6.54;100.00
29569;BME280;16501;51.462;14.346;2024-02-04T02:03:51;100366.84;;;6.50;100.00
29569;BME280;16501;51.462;14.346;2024-02-04T02:06:17;100353.78;;;6.47;100.00
29569;BME280;16501;51.462;14.346;2024-02-04T02:08:42;100367.06;;;6.43;100.00
29569;BME280;16501;51.462;14.346;2024-02-04T02:11:27;100380.91;;;6.59;100.00
29569;BME280;16501;51.462;14.346;2024-02-04T02:14:01;100376.41;;;6.49;100.00
29569;BME280;16501;51.462;14.346;2024-02-04T02:16:37;100402.31;;;6.63;100.00
29569;BME280;16501;51.462;14.346;2024-02-04T02:21:50;100373.88;;;6.55;100.00
29569;BME280;16501;51.462;14.346;2024-02-04T02:26:49;100379.34;;;6.58;100.00
29569;BME280;16501;51.462;14.346;2024-02-04T02:29:14;100353.34;;;6.49;100.00
29569;BME280;16501;51.462;14.346;2024-02-04T02:31:40;100388.72;;;6.65;100.00
29569;BME280;16501;51.462;14.346;2024-02-04T02:34:07;100376.03;;;6.64;100.00
29569;BME280;16501;51.462;14.346;2024-02-04T02:36:37;100381.66;;;6.60;100.00
29569;BME280;16501;51.462;14.346;2024-02-04T02:39:18;100389.25;;;6.59;100.00
29569;BME280;16501;51.462;14.346;2024-02-04T02:41:49;100398.31;;;6.64;100.00
29569;BME280;16501;51.462;14.346;2024-02-04T02:44:14;100387.44;;;6.53;100.00
29569;BME280;16501;51.462;14.346;2024-02-04T02:46:41;100390.13;;;6.56;100.00
29569;BME280;16501;51.462;14.346;2024-02-04T02:49:07;100391.38;;;6.55;100.00
29569;BME280;16501;51.462;14.346;2024-02-04T02:51:32;100401.09;;;6.64;100.00
29569;BME280;16501;51.462;14.346;2024-02-04T02:53:57;100390.81;;;6.60;100.00
29569;BME280;16501;51.462;14.346;2024-02-04T02:56:22;100364.59;;;6.45;100.00
29569;BME280;16501;51.462;14.346;2024-02-04T02:58:48;100390.59;;;6.55;100.00
29569;BME280;16501;51.462;14.346;2024-02-04T03:01:13;100372.06;;;6.48;100.00
29569;BME280;16501;51.462;14.346;2024-02-04T03:03:38;100375.19;;;6.50;100.00
29569;BME280;16501;51.462;14.346;2024-02-04T03:06:04;100349.94;;;6.28;100.00
29569;BME280;16501;51.462;14.346;2024-02-04T03:08:30;100374.88;;;6.48;100.00
29569;BME280;16501;51.462;14.346;2024-02-04T03:10:55;100377.38;;;6.42;100.00
29569;BME280;16501;51.462;14.346;2024-02-04T03:13:21;100363.03;;;6.44;100.00
29569;BME280;16501;51.462;14.346;2024-02-04T03:15:46;100370.50;;;6.47;100.00
29569;BME280;16501;51.462;14.346;2024-02-04T03:18:11;100354.00;;;6.40;100.00
29569;BME280;16501;51.462;14.346;2024-02-04T03:20:36;100338.59;;;6.35;100.00
29569;BME280;16501;51.462;14.346;2024-02-04T03:23:02;100357.13;;;6.42;100.00
29569;BME280;16501;51.462;14.346;2024-02-04T03:25:27;100372.66;;;6.56;100.00
29569;BME280;16501;51.462;14.346;2024-02-04T03:27:54;100362.47;;;6.49;100.00
29569;BME280;16501;51.462;14.346;2024-02-04T03:30:19;100375.97;;;6.51;100.00
29569;BME280;16501;51.462;14.346;2024-02-04T03:32:44;100352.78;;;6.41;100.00
29569;BME280;16501;51.462;14.346;2024-02-04T03:35:10;100378.97;;;6.56;100.00
29569;BME280;16501;51.462;14.346;2024-02-04T03:37:35;100363.72;;;6.48;100.00
29569;BME280;16501;51.462;14.346;2024-02-04T03:40:00;100363.19;;;6.53;100.00
29569;BME280;16501;51.462;14.346;2024-02-04T03:42:25;100379.34;;;6.58;100.00
29569;BME280;16501;51.462;14.346;2024-02-04T03:44:51;100341.59;;;6.28;100.00
29569;BME280;16501;51.462;14.346;2024-02-04T03:47:16;100357.47;;;6.44;100.00
29569;BME280;16501;51.462;14.346;2024-02-04T03:49:41;100338.59;;;6.35;100.00
29569;BME280;16501;51.462;14.346;2024-02-04T03:52:06;100361.38;;;6.47;100.00
29569;BME280;16501;51.462;14.346;2024-02-04T03:54:32;100384.00;;;6.49;100.00
29569;BME280;16501;51.462;14.346;2024-02-04T03:56:57;100380.00;;;6.50;100.00
29569;BME280;16501;51.462;14.346;2024-02-04T03:59:22;100359.69;;;6.36;100.00
29569;BME280;16501;51.462;14.346;2024-02-04T04:01:48;100372.63;;;6.43;100.00
29569;BME280;16501;51.462;14.346;2024-02-04T04:04:14;100366.03;;;6.37;100.00
29569;BME280;16501;51.462;14.346;2024-02-04T04:06:40;100359.44;;;6.31;100.00
29569;BME280;16501;51.462;14.346;2024-02-04T04:09:05;100343.81;;;6.20;100.00
29569;BME280;16501;51.462;14.346;2024-02-04T04:11:32;100360.13;;;6.35;100.00
29569;BME280;16501;51.462;14.346;2024-02-04T04:13:57;100339.78;;;6.21;100.00
29569;BME280;16501;51.462;14.346;2024-02-04T04:16:23;100345.97;;;6.29;100.00
29569;BME280;16501;51.462;14.346;2024-02-04T04:18:48;100349.19;;;6.28;100.00
29569;BME280;16501;51.462;14.346;2024-02-04T04:21:14;100355.09;;;6.30;100.00
29569;BME280;16501;51.462;14.346;2024-02-04T04:23:39;100304.66;;;5.98;100.00
29569;BME280;16501;51.462;14.346;2024-02-04T04:26:04;100355.09;;;6.30;100.00
29569;BME280;16501;51.462;14.346;2024-02-04T04:28:30;100358.22;;;6.32;100.00
29569;BME280;16501;51.462;14.346;2024-02-04T04:30:56;100355.53;;;6.28;100.00
29569;BME280;16501;51.462;14.346;2024-02-04T04:33:21;100355.41;;;6.32;100.00
29569;BME280;16501;51.462;14.346;2024-02-04T04:35:47;100335.16;;;6.02;100.00
29569;BME280;16501;51.462;14.346;2024-02-04T04:38:12;100373.81;;;6.29;100.00
29569;BME280;16501;51.462;14.346;2024-02-04T04:40:37;100369.44;;;6.28;100.00
29569;BME280;16501;51.462;14.346;2024-02-04T04:43:03;100358.72;;;6.14;100.00
29569;BME280;16501;51.462;14.346;2024-02-04T04:45:28;100369.75;;;6.17;100.00
29569;BME280;16501;51.462;14.346;2024-02-04T04:47:53;100350.25;;;6.17;100.00
29569;BME280;16501;51.462;14.346;2024-02-04T04:50:19;100292.56;;;5.89;100.00
29569;BME280;16501;51.462;14.346;2024-02-04T04:52:44;100348.78;;;6.13;100.00
29569;BME280;16501;51.462;14.346;2024-02-04T04:55:09;100342.03;;;6.27;100.00
29569;BME280;16501;51.462;14.346;2024-02-04T04:57:35;100343.00;;;6.20;100.00
29569;BME280;16501;51.462;14.346;2024-02-04T05:00:00;100339.91;;;6.18;100.00
29569;BME280;16501;51.462;14.346;2024-02-04T05:02:31;100363.66;;;6.22;100.00
29569;BME280;16501;51.462;14.346;2024-02-04T05:04:56;100345.63;;;6.27;100.00
29569;BME280;16501;51.462;14.346;2024-02-04T05:07:21;100350.56;;;6.36;100.00
29569;BME280;16501;51.462;14.346;2024-02-04T05:09:47;100324.66;;;6.22;100.00
29569;BME280;16501;51.462;14.346;2024-02-04T05:12:12;100341.84;;;6.34;100.00
29569;BME280;16501;51.462;14.346;2024-02-04T05:14:37;100336.47;;;6.27;100.00
29569;BME280;16501;51.462;14.346;2024-02-04T05:17:04;100294.19;;;6.02;100.00
29569;BME280;16501;51.462;14.346;2024-02-04T05:19:29;100307.47;;;6.11;100.00
29569;BME280;16501;51.462;14.346;2024-02-04T05:21:54;100322.31;;;6.21;100.00
29569;BME280;16501;51.462;14.346;2024-02-04T05:24:19;100328.00;;;6.17;100.00
29569;BME280;16501;51.462;14.346;2024-02-04T05:26:45;100322.19;;;6.12;100.00
29569;BME280;16501;51.462;14.346;2024-02-04T05:29:10;100324.09;;;6.15;100.00
29569;BME280;16501;51.462;14.346;2024-02-04T05:31:43;100330.34;;;6.19;100.00
29569;BME280;16501;51.462;14.346;2024-02-04T05:34:08;100318.75;;;6.20;100.00
29569;BME280;16501;51.462;14.346;2024-02-04T05:36:34;100311.28;;;6.17;100.00
29569;BME280;16501;51.462;14.346;2024-02-04T05:39:09;100319.88;;;6.23;100.00
29569;BME280;16501;51.462;14.346;2024-02-04T05:41:35;100318.22;;;6.26;100.00
29569;BME280;16501;51.462;14.346;2024-02-04T05:44:00;100310.94;;;6.15;100.00
29569;BME280;16501;51.462;14.346;2024-02-04T05:46:26;100311.50;;;6.23;100.00
29569;BME280;16501;51.462;14.346;2024-02-04T05:48:52;100293.09;;;6.13;100.00
29569;BME280;16501;51.462;14.346;2024-02-04T05:51:18;100296.16;;;6.18;100.00
29569;BME280;16501;51.462;14.346;2024-02-04T05:53:43;100307.28;;;6.18;100.00
29569;BME280;16501;51.462;14.346;2024-02-04T05:56:08;100302.00;;;6.08;100.00
29569;BME280;16501;51.462;14.346;2024-02-04T05:58:33;100302.00;;;6.08;100.00
29569;BME280;16501;51.462;14.346;2024-02-04T06:00:59;100306.16;;;6.16;100.00
29569;BME280;16501;51.462;14.346;2024-02-04T06:03:24;100303.84;;;6.27;100.00
29569;BME280;16501;51.462;14.346;2024-02-04T06:05:49;100290.50;;;6.35;100.00
29569;BME280;16501;51.462;14.346;2024-02-04T06:08:14;100282.69;;;6.30;100.00
29569;BME280;16501;51.462;14.346;2024-02-04T06:10:40;100290.81;;;6.37;100.00
29569;BME280;16501;51.462;14.346;2024-02-04T06:13:05;100284.03;;;6.38;100.00
29569;BME280;16501;51.462;14.346;2024-02-04T06:15:30;100273.44;;;6.33;100.00
29569;BME280;16501;51.462;14.346;2024-02-04T06:17:55;100270.34;;;6.31;100.00
29569;BME280;16501;51.462;14.346;2024-02-04T06:20:21;100265.53;;;6.31;100.00
29569;BME280;16501;51.462;14.346;2024-02-04T06:22:46;100283.16;;;6.41;100.00
29569;BME280;16501;51.462;14.346;2024-02-04T06:25:11;100266.41;;;6.28;100.00
29569;BME280;16501;51.462;14.346;2024-02-04T06:27:36;100282.81;;;6.39;100.00
29569;BME280;16501;51.462;14.346;2024-02-04T06:30:02;100313.59;;;6.48;100.00
29569;BME280;16501;51.462;14.346;2024-02-04T06:32:27;100286.81;;;6.38;100.00
29569;BME280;16501;51.462;14.346;2024-02-04T06:34:52;100278.59;;;6.34;100.00
29569;BME280;16501;51.462;14.346;2024-02-04T06:37:20;100269.78;;;6.36;100.00
29569;BME280;16501;51.462;14.346;2024-02-04T06:39:45;100263.53;;;6.32;100.00
29569;BME280;16501;51.462;14.346;2024-02-04T06:42:11;100294.41;;;6.50;100.00
29569;BME280;16501;51.462;14.346;2024-02-04T06:44:36;100279.34;;;6.35;100.00
29569;BME280;16501;51.462;14.346;2024-02-04T06:47:01;100251.59;;;6.18;100.00
29569;BME280;16501;51.462;14.346;2024-02-04T06:49:27;100265.31;;;6.38;100.00
29569;BME280;16501;51.462;14.346;2024-02-04T06:51:52;100283.50;;;6.43;100.00
29569;BME280;16501;51.462;14.346;2024-02-04T06:54:22;100296.66;;;6.55;100.00
29569;BME280;16501;51.462;14.346;2024-02-04T06:56:47;100272.47;;;6.39;100.00
29569;BME280;16501;51.462;14.346;2024-02-04T06:59:12;100281.38;;;6.47;100.00
29569;BME280;16501;51.462;14.346;2024-02-04T07:01:37;100287.41;;;6.58;100.00
29569;BME280;16501;51.462;14.346;2024-02-04T07:04:03;100270.56;;;6.49;100.00
29569;BME280;16501;51.462;14.346;2024-02-04T07:06:28;100265.22;;;6.42;100.00
29569;BME280;16501;51.462;14.346;2024-02-04T07:08:53;100287.63;;;6.64;100.00
29569;BME280;16501;51.462;14.346;2024-02-04T07:11:18;100270.59;;;6.62;100.00
29569;BME280;16501;51.462;14.346;2024-02-04T07:13:44;100274.81;;;6.67;100.00
29569;BME280;16501;51.462;14.346;2024-02-04T07:16:09;100242.47;;;6.56;100.00
29569;BME280;16501;51.462;14.346;2024-02-04T07:18:34;100231.91;;;6.51;100.00
29569;BME280;16501;51.462;14.346;2024-02-04T07:21:00;100264.78;;;6.69;100.00
29569;BME280;16501;51.462;14.346;2024-02-04T07:23:25;100241.94;;;6.49;100.00
29569;BME280;16501;51.462;14.346;2024-02-04T07:25:50;100250.06;;;6.56;100.00
29569;BME280;16501;51.462;14.346;2024-02-04T07:28:15;100258.31;;;6.59;100.00
29569;BME280;16501;51.462;14.346;2024-02-04T07:30:41;100268.69;;;6.72;100.00
29569;BME280;16501;51.462;14.346;2024-02-04T07:33:06;100242.47;;;6.56;100.00
29569;BME280;16501;51.462;14.346;2024-02-04T07:35:31;100242.72;;;6.62;100.00
29569;BME280;16501;51.462;14.346;2024-02-04T07:37:57;100242.84;;;6.58;100.00
29569;BME280;16501;51.462;14.346;2024-02-04T07:40:22;100213.97;;;6.39;100.00
29569;BME280;16501;51.462;14.346;2024-02-04T07:42:47;100243.81;;;6.65;100.00
29569;BME280;16501;51.462;14.346;2024-02-04T07:45:13;100236.91;;;6.56;100.00
29569;BME280;16501;51.462;14.346;2024-02-04T07:47:38;100247.63;;;6.71;100.00
29569;BME280;16501;51.462;14.346;2024-02-04T07:50:04;100245.28;;;6.69;100.00
29569;BME280;16501;51.462;14.346;2024-02-04T07:52:29;100242.59;;;6.66;100.00
29569;BME280;16501;51.462;14.346;2024-02-04T07:54:54;100228.09;;;6.58;100.00
29569;BME280;16501;51.462;14.346;2024-02-04T07:57:19;100232.78;;;6.61;100.00
29569;BME280;16501;51.462;14.346;2024-02-04T07:59:45;100218.41;;;6.63;100.00
29569;BME280;16501;51.462;14.346;2024-02-04T08:02:10;100230.53;;;6.69;100.00
29569;BME280;16501;51.462;14.346;2024-02-04T08:04:36;100215.84;;;6.68;100.00
29569;BME280;16501;51.462;14.346;2024-02-04T08:07:02;100208.16;;;6.59;100.00
29569;BME280;16501;51.462;14.346;2024-02-04T08:09:27;100210.28;;;6.68;100.00
29569;BME280;16501;51.462;14.346;2024-02-04T08:11:52;100230.66;;;6.78;100.00
29569;BME280;16501;51.462;14.346;2024-02-04T08:14:17;100220.09;;;6.73;100.00
29569;BME280;16501;51.462;14.346;2024-02-04T08:16:43;100232.44;;;6.85;100.00
29569;BME280;16501;51.462;14.346;2024-02-04T08:19:11;100211.72;;;6.73;100.00
29569;BME280;16501;51.462;14.346;2024-02-04T08:21:36;100211.97;;;6.66;100.00
29569;BME280;16501;51.462;14.346;2024-02-04T08:24:02;100210.06;;;6.63;100.00
29569;BME280;16501;51.462;14.346;2024-02-04T08:26:27;100219.97;;;6.76;100.00
29569;BME280;16501;51.462;14.346;2024-02-04T08:28:53;100218.84;;;6.74;100.00
29569;BME280;16501;51.462;14.346;2024-02-04T08:31:18;100228.44;;;6.73;100.00
29569;BME280;16501;51.462;14.346;2024-02-04T08:33:43;100244.25;;;6.89;100.00
29569;BME280;16501;51.462;14.346;2024-02-04T08:36:08;100228.78;;;6.75;100.00
29569;BME280;16501;51.462;14.346;2024-02-04T08:38:36;100242.13;;;6.93;100.00
29569;BME280;16501;51.462;14.346;2024-02-04T08:41:03;100221.63;;;6.87;100.00
29569;BME280;16501;51.462;14.346;2024-02-04T08:43:28;100200.59;;;6.73;100.00
29569;BME280;16501;51.462;14.346;2024-02-04T08:45:53;100216.28;;;6.79;100.00
29569;BME280;16501;51.462;14.346;2024-02-04T08:48:18;100244.34;;;6.98;100.00
29569;BME280;16501;51.462;14.346;2024-02-04T08:50:44;100220.94;;;6.83;100.00
29569;BME280;16501;51.462;14.346;2024-02-04T08:53:09;100228.09;;;6.84;100.00
29569;BME280;16501;51.462;14.346;2024-02-04T08:55:34;100233.00;;;6.92;100.00
29569;BME280;16501;51.462;14.346;2024-02-04T08:57:59;100222.84;;;6.98;100.00
29569;BME280;16501;51.462;14.346;2024-02-04T09:00:25;100207.66;;;6.99;100.00
29569;BME280;16501;51.462;14.346;2024-02-04T09:02:50;100204.31;;;7.05;100.00
29569;BME280;16501;51.462;14.346;2024-02-04T09:05:15;100209.06;;;7.17;100.00
29569;BME280;16501;51.462;14.346;2024-02-04T09:07:41;100208.16;;;7.20;100.00
29569;BME280;16501;51.462;14.346;2024-02-04T09:10:09;100204.72;;;7.16;100.00
29569;BME280;16501;51.462;14.346;2024-02-04T09:12:34;100191.81;;;7.09;100.00
29569;BME280;16501;51.462;14.346;2024-02-04T09:15:00;100198.22;;;7.19;100.00
29569;BME280;16501;51.462;14.346;2024-02-04T09:17:25;100203.38;;;7.21;100.00
29569;BME280;16501;51.462;14.346;2024-02-04T09:19:50;100192.44;;;7.26;100.00
29569;BME280;16501;51.462;14.346;2024-02-04T09:22:15;100194.28;;;7.29;100.00
29569;BME280;16501;51.462;14.346;2024-02-04T09:24:41;100207.16;;;7.49;100.00
29569;BME280;16501;51.462;14.346;2024-02-04T09:27:06;100213.97;;;7.48;100.00
29569;BME280;16501;51.462;14.346;2024-02-04T09:29:32;100214.63;;;7.52;100.00
29569;BME280;16501;51.462;14.346;2024-02-04T09:31:57;100201.78;;;7.54;100.00
29569;BME280;16501;51.462;14.346;2024-02-04T09:34:22;100190.09;;;7.47;100.00
29569;BME280;16501;51.462;14.346;2024-02-04T09:36:48;100167.72;;;7.38;100.00
29569;BME280;16501;51.462;14.346;2024-02-04T09:39:13;100186.47;;;7.59;100.00
29569;BME280;16501;51.462;14.346;2024-02-04T09:41:38;100179.72;;;7.47;100.00
29569;BME280;16501;51.462;14.346;2024-02-04T09:44:04;100155.78;;;7.59;100.00
29569;BME280;16501;51.462;14.346;2024-02-04T09:46:31;100173.22;;;7.72;100.00
29569;BME280;16501;51.462;14.346;2024-02-04T09:48:56;100179.00;;;7.78;100.00
29569;BME280;16501;51.462;14.346;2024-02-04T09:51:22;100176.91;;;7.91;100.00
29569;BME280;16501;51.462;14.346;2024-02-04T09:53:52;100165.03;;;7.78;100.00
29569;BME280;16501;51.462;14.346;2024-02-04T09:56:17;100178.53;;;7.80;100.00
29569;BME280;16501;51.462;14.346;2024-02-04T09:58:43;100169.34;;;7.70;100.00
29569;BME280;16501;51.462;14.346;2024-02-04T10:01:10;100190.88;;;7.69;100.00
29569;BME280;16501;51.462;14.346;2024-02-04T10:03:36;100163.00;;;7.47;100.00
29569;BME280;16501;51.462;14.346;2024-02-04T10:06:01;100187.78;;;7.67;100.00
29569;BME280;16501;51.462;14.346;2024-02-04T10:08:27;100173.44;;;7.56;100.00
29569;BME280;16501;51.462;14.346;2024-02-04T10:10:52;100187.44;;;7.65;100.00
29569;BME280;16501;51.462;14.346;2024-02-04T10:13:19;100197.13;;;7.73;100.00
29569;BME280;16501;51.462;14.346;2024-02-04T10:15:46;100184.53;;;7.69;100.00
29569;BME280;16501;51.462;14.346;2024-02-04T10:18:11;100158.38;;;7.53;100.00
29569;BME280;16501;51.462;14.346;2024-02-04T10:20:37;100163.41;;;7.68;100.00
29569;BME280;16501;51.462;14.346;2024-02-04T10:23:02;100137.63;;;7.54;100.00
29569;BME280;16501;51.462;14.346;2024-02-04T10:25:27;100161.34;;;7.59;100.00
29569;BME280;16501;51.462;14.346;2024-02-04T10:27:53;100167.38;;;7.80;100.00
29569;BME280;16501;51.462;14.346;2024-02-04T10:30:20;100140.66;;;7.69;100.00
29569;BME280;16501;51.462;14.346;2024-02-04T10:32:52;100121.34;;;7.53;100.00
29569;BME280;16501;51.462;14.346;2024-02-04T10:35:17;100152.78;;;7.76;100.00
29569;BME280;16501;51.462;14.346;2024-02-04T10:37:45;100146.50;;;7.62;100.00
29569;BME280;16501;51.462;14.346;2024-02-04T10:40:11;100133.78;;;7.61;100.00
29569;BME280;16501;51.462;14.346;2024-02-04T10:42:37;100148.28;;;7.78;100.00
29569;BME280;16501;51.462;14.346;2024-02-04T10:45:04;100130.00;;;7.77;100.00
29569;BME280;16501;51.462;14.346;2024-02-04T10:47:32;100128.16;;;7.83;100.00
29569;BME280;16501;51.462;14.346;2024-02-04T10:50:02;100124.88;;;7.76;100.00
29569;BME280;16501;51.462;14.346;2024-02-04T10:52:28;100123.63;;;7.77;100.00
29569;BME280;16501;51.462;14.346;2024-02-04T10:54:57;100130.63;;;7.81;100.00
29569;BME280;16501;51.462;14.346;2024-02-04T10:57:23;100126.16;;;7.84;100.00
29569;BME280;16501;51.462;14.346;2024-02-04T10:59:51;100117.66;;;7.87;100.00
29569;BME280;16501;51.462;14.346;2024-02-04T11:02:17;100083.16;;;7.72;100.00
29569;BME280;16501;51.462;14.346;2024-02-04T11:04:43;100102.31;;;7.92;100.00
29569;BME280;16501;51.462;14.346;2024-02-04T11:07:10;100077.28;;;7.79;100.00
29569;BME280;16501;51.462;14.346;2024-02-04T11:09:39;100109.13;;;7.91;100.00
29569;BME280;16501;51.462;14.346;2024-02-04T11:12:11;100077.59;;;7.81;100.00
29569;BME280;16501;51.462;14.346;2024-02-04T11:14:42;100101.25;;;7.99;100.00
29569;BME280;16501;51.462;14.346;2024-02-04T11:23:01;100082.34;;;8.03;100.00
29569;BME280;16501;51.462;14.346;2024-02-04T11:25:43;100065.41;;;7.97;100.00
29569;BME280;16501;51.462;14.346;2024-02-04T11:28:11;100080.97;;;8.07;100.00
29569;BME280;16501;51.462;14.346;2024-02-04T11:30:37;100039.16;;;7.85;100.00
29569;BME280;16501;51.462;14.346;2024-02-04T11:33:03;100033.47;;;7.98;100.00
29569;BME280;16501;51.462;14.346;2024-02-04T11:35:29;100048.56;;;8.10;100.00
29569;BME280;16501;51.462;14.346;2024-02-04T11:37:54;100048.56;;;8.10;100.00
29569;BME280;16501;51.462;14.346;2024-02-04T11:40:20;100056.03;;;8.22;100.00
29569;BME280;16501;51.462;14.346;2024-02-04T11:42:48;100024.97;;;8.11;100.00
29569;BME280;16501;51.462;14.346;2024-02-04T11:45:13;100045.63;;;8.23;100.00
29569;BME280;16501;51.462;14.346;2024-02-04T11:47:39;100044.53;;;8.20;100.00
29569;BME280;16501;51.462;14.346;2024-02-04T11:50:05;100047.66;;;8.22;100.00
29569;BME280;16501;51.462;14.346;2024-02-04T11:52:31;100023.88;;;8.08;100.00
29569;BME280;16501;51.462;14.346;2024-02-04T11:54:57;100042.53;;;8.21;100.00
29569;BME280;16501;51.462;14.346;2024-02-04T11:57:23;100046.72;;;8.25;100.00
29569;BME280;16501;51.462;14.346;2024-02-04T11:59:48;100032.75;;;8.25;100.00
29569;BME280;16501;51.462;14.346;2024-02-04T12:02:17;100035.22;;;8.14;100.00
29569;BME280;16501;51.462;14.346;2024-02-04T12:04:44;100023.91;;;8.18;100.00
29569;BME280;16501;51.462;14.346;2024-02-04T12:07:10;100060.22;;;8.18;100.00
29569;BME280;16501;51.462;14.346;2024-02-04T12:09:35;100022.00;;;8.05;100.00
29569;BME280;16501;51.462;14.346;2024-02-04T12:12:02;100028.81;;;7.95;100.00
29569;BME280;16501;51.462;14.346;2024-02-04T12:14:28;100038.59;;;8.00;100.00
29569;BME280;16501;51.462;14.346;2024-02-04T12:16:55;100051.50;;;8.06;100.00
29569;BME280;16501;51.462;14.346;2024-02-04T12:19:20;100039.97;;;7.95;100.00
29569;BME280;16501;51.462;14.346;2024-02-04T12:21:45;100011.88;;;7.89;100.00
29569;BME280;16501;51.462;14.346;2024-02-04T12:24:10;100016.03;;;7.76;100.00
29569;BME280;16501;51.462;14.346;2024-02-04T12:26:36;100023.13;;;7.67;100.00
29569;BME280;16501;51.462;14.346;2024-02-04T12:29:01;100006.69;;;7.69;100.00
29569;BME280;16501;51.462;14.346;2024-02-04T12:31:28;100013.22;;;7.66;100.00
29569;BME280;16501;51.462;14.346;2024-02-04T12:34:00;100014.75;;;7.67;100.00
29569;BME280;16501;51.462;14.346;2024-02-04T12:36:30;100007.63;;;7.66;100.00
29569;BME280;16501;51.462;14.346;2024-02-04T12:38:57;99995.81;;;7.62;100.00
29569;BME280;16501;51.462;14.346;2024-02-04T12:41:24;99986.06;;;7.67;100.00
29569;BME280;16501;51.462;14.346;2024-02-04T12:44:03;99977.25;;;7.68;100.00